Elon, Iowa
Current Conditions -  °F | °C
As of 1:55 PM on Saturday 25 Oct 2014 (Local Time) from KPDC Reporting Station
Clear Clear  
Wind Chill: 68°   Ceiling: Unl
Heat Index: 68°   Visibility: 10mi
Dew Point: 28°   Wind: 12mph
Humidity: 23%   Direction: 290°WNW
Pressure: 30"   Gusts: 18mph
Location:  43.2691°N, 91.2611°W
Report Text: KPDC 251855Z AUTO 29010G16KT 10SM CLR 20/M02 A3000 RMK AO2 T02001020
Loading
Personal Weather Stations






























Interactive Weather Map
Tropical Storm Tracking
New forecast layout! Learn more

10-Day Weather Forecast

Advertisements
Track Severe Weather on mobile